Time;durP1;ratioP1;P1;durP2;ratioP2;P2;SDS_P1;SDS_P2;PMS_P1;PMS_P2;Temp;Humidity;BMP_temperature;BMP_pressure;BME280_temperature;BME280_humidity;BME280_pressure;Samples;Min_cycle;Max_cycle;Signal;HPM_P1;HPM_P2
2021/01/19 00:00:24;;;;;;;3.47;2.30;;;;;;;;;;5072209;28;20077;-67
2021/01/19 00:02:50;;;;;;;2.40;2.15;;;;;;;;;;5071938;28;20031;-67
2021/01/19 00:05:16;;;;;;;2.42;2.20;;;;;;;;;;5070455;28;20445;-67
2021/01/19 00:07:43;;;;;;;2.70;2.50;;;;;;;;;;5072272;28;20094;-67
2021/01/19 00:10:09;;;;;;;2.47;2.28;;;;;;;;;;5076775;28;20024;-67
2021/01/19 00:12:35;;;;;;;2.60;2.10;;;;;;;;;;5091996;28;20134;-67
2021/01/19 00:15:03;;;;;;;2.45;1.90;;;;;;;;;;5092887;28;20054;-67
2021/01/19 00:17:29;;;;;;;3.03;2.67;;;;;;;;;;5091279;28;20048;-67
2021/01/19 00:19:55;;;;;;;2.10;1.92;;;;;;;;;;5092747;28;20024;-67
2021/01/19 00:22:21;;;;;;;3.45;2.00;;;;;;;;;;5092202;28;20039;-66
2021/01/19 00:24:47;;;;;;;2.65;2.42;;;;;;;;;;5092368;28;20081;-67
2021/01/19 00:27:13;;;;;;;2.33;2.10;;;;;;;;;;5090782;28;20036;-66
2021/01/19 00:29:39;;;;;;;3.00;2.20;;;;;;;;;;5092309;28;20481;-67
2021/01/19 00:32:06;;;;;;;2.97;2.38;;;;;;;;;;5092791;28;20463;-67
2021/01/19 00:34:32;;;;;;;2.53;2.30;;;;;;;;;;5090988;28;20457;-66
2021/01/19 00:36:58;;;;;;;2.47;2.15;;;;;;;;;;5092978;28;20417;-67
2021/01/19 00:39:24;;;;;;;2.88;2.53;;;;;;;;;;5111815;28;20040;-67
2021/01/19 00:41:50;;;;;;;3.63;2.90;;;;;;;;;;5111998;28;20053;-67
2021/01/19 00:44:16;;;;;;;2.92;2.63;;;;;;;;;;5111279;28;20509;-66
2021/01/19 00:46:42;;;;;;;2.53;2.33;;;;;;;;;;5112472;28;20039;-67
2021/01/19 00:49:08;;;;;;;2.65;2.47;;;;;;;;;;5112478;28;20036;-67
2021/01/19 00:51:35;;;;;;;2.83;2.50;;;;;;;;;;5111322;28;20039;-67
2021/01/19 00:54:02;;;;;;;2.88;2.55;;;;;;;;;;5111920;28;20035;-67
2021/01/19 00:56:37;;;;;;;2.28;2.08;;;;;;;;;;5111504;28;20030;-67
2021/01/19 00:59:03;;;;;;;3.15;2.85;;;;;;;;;;5112714;28;20375;-67
2021/01/19 01:01:29;;;;;;;3.05;2.75;;;;;;;;;;5111851;28;20374;-67
2021/01/19 01:03:55;;;;;;;2.10;1.90;;;;;;;;;;5112144;28;20538;-67
2021/01/19 01:06:21;;;;;;;2.85;2.58;;;;;;;;;;5111266;28;20398;-67
2021/01/19 01:08:47;;;;;;;1.70;1.50;;;;;;;;;;5112249;28;20023;-67
2021/01/19 01:11:14;;;;;;;3.22;2.83;;;;;;;;;;5112168;28;20450;-66
2021/01/19 01:13:40;;;;;;;2.58;2.20;;;;;;;;;;5111827;28;20024;-67
2021/01/19 01:16:11;;;;;;;2.25;2.08;;;;;;;;;;5111741;28;20023;-67
2021/01/19 01:18:37;;;;;;;3.08;2.25;;;;;;;;;;5111209;28;20475;-67
2021/01/19 01:21:03;;;;;;;2.95;2.65;;;;;;;;;;5112241;28;20050;-67
2021/01/19 01:23:29;;;;;;;2.53;2.33;;;;;;;;;;5111330;28;20482;-67
2021/01/19 01:25:55;;;;;;;2.50;2.30;;;;;;;;;;5112162;28;20415;-67
2021/01/19 01:28:21;;;;;;;3.47;3.15;;;;;;;;;;5111104;28;20043;-66
2021/01/19 01:30:47;;;;;;;2.53;2.33;;;;;;;;;;5111876;28;20024;-67
2021/01/19 01:33:13;;;;;;;2.50;2.15;;;;;;;;;;5112191;28;20030;-66
2021/01/19 01:35:39;;;;;;;4.57;2.65;;;;;;;;;;5111041;28;20039;-67
2021/01/19 01:38:06;;;;;;;3.25;2.35;;;;;;;;;;5094636;28;20081;-67
2021/01/19 01:40:32;;;;;;;2.83;2.58;;;;;;;;;;5090637;28;20059;-67
2021/01/19 01:42:59;;;;;;;3.50;2.88;;;;;;;;;;5091390;28;20049;-67
2021/01/19 01:45:26;;;;;;;3.22;2.70;;;;;;;;;;5090394;28;20402;-66
2021/01/19 01:47:55;;;;;;;2.90;2.38;;;;;;;;;;5091294;28;20039;-67
2021/01/19 01:50:22;;;;;;;3.90;3.13;;;;;;;;;;5090402;28;20133;-67
2021/01/19 01:52:48;;;;;;;3.85;2.88;;;;;;;;;;5091342;28;20038;-67
2021/01/19 01:55:17;;;;;;;3.10;2.72;;;;;;;;;;5090762;28;20031;-66
2021/01/19 01:57:44;;;;;;;2.58;2.38;;;;;;;;;;5091320;28;20081;-67
2021/01/19 02:00:11;;;;;;;4.40;2.90;;;;;;;;;;5090908;28;20028;-67
2021/01/19 02:02:49;;;;;;;2.53;1.98;;;;;;;;;;5090105;28;20114;-67
2021/01/19 02:05:15;;;;;;;2.40;2.20;;;;;;;;;;5089772;28;20028;-66
2021/01/19 02:07:51;;;;;;;3.50;3.20;;;;;;;;;;5090196;28;20040;-67
2021/01/19 02:10:29;;;;;;;2.53;2.33;;;;;;;;;;5090167;28;20024;-66
2021/01/19 02:13:15;;;;;;;3.47;1.73;;;;;;;;;;5090850;28;20024;-67
2021/01/19 02:15:43;;;;;;;2.25;2.10;;;;;;;;;;5072960;28;20044;-67
2021/01/19 02:18:21;;;;;;;3.45;2.60;;;;;;;;;;5090158;28;20040;-67
2021/01/19 02:20:57;;;;;;;2.95;2.65;;;;;;;;;;5090773;28;20060;-67
2021/01/19 02:23:33;;;;;;;2.35;2.25;;;;;;;;;;5090108;28;20467;-67
2021/01/19 02:26:17;;;;;;;2.50;2.22;;;;;;;;;;5090515;28;20416;-67
2021/01/19 02:28:49;;;;;;;2.80;1.98;;;;;;;;;;5090649;28;20036;-67
2021/01/19 02:31:23;;;;;;;2.00;1.90;;;;;;;;;;5090077;28;20085;-66
2021/01/19 02:34:04;;;;;;;2.90;1.60;;;;;;;;;;5090727;28;20026;-67
2021/01/19 02:36:46;;;;;;;2.55;2.35;;;;;;;;;;5092555;28;20566;-67
2021/01/19 02:39:14;;;;;;;2.17;1.98;;;;;;;;;;5110582;28;20092;-67
2021/01/19 02:41:43;;;;;;;1.73;1.63;;;;;;;;;;5110417;28;20059;-67
2021/01/19 02:44:19;;;;;;;1.85;1.60;;;;;;;;;;5110898;28;20095;-67
2021/01/19 02:46:51;;;;;;;1.63;1.33;;;;;;;;;;5110350;28;20036;-67
2021/01/19 02:49:17;;;;;;;1.52;1.38;;;;;;;;;;5109775;28;20106;-67
2021/01/19 02:51:44;;;;;;;2.15;1.70;;;;;;;;;;5110506;28;20036;-67
2021/01/19 02:54:10;;;;;;;1.35;1.15;;;;;;;;;;5110678;28;20554;-67
2021/01/19 02:56:48;;;;;;;1.67;1.58;;;;;;;;;;5110194;28;20055;-67
2021/01/19 02:59:20;;;;;;;1.65;1.55;;;;;;;;;;5109866;28;20035;-66
2021/01/19 03:02:05;;;;;;;1.70;1.60;;;;;;;;;;5110451;28;20080;-68
2021/01/19 03:04:33;;;;;;;2.03;1.10;;;;;;;;;;5109742;28;20023;-68
2021/01/19 03:07:03;;;;;;;1.27;1.15;;;;;;;;;;5110172;28;20038;-67
2021/01/19 03:09:30;;;;;;;1.40;1.30;;;;;;;;;;5109266;28;20098;-67
2021/01/19 03:11:56;;;;;;;1.27;1.05;;;;;;;;;;5110471;28;20031;-67
2021/01/19 03:14:22;;;;;;;1.52;1.10;;;;;;;;;;5110204;28;20038;-67
2021/01/19 03:16:48;;;;;;;1.23;0.90;;;;;;;;;;5113862;28;20581;-67
2021/01/19 03:19:17;;;;;;;0.93;0.90;;;;;;;;;;5113976;28;20074;-66
2021/01/19 03:21:43;;;;;;;1.48;1.40;;;;;;;;;;5114208;28;20015;-67
2021/01/19 03:24:09;;;;;;;1.42;0.90;;;;;;;;;;5113364;28;20058;-67
2021/01/19 03:26:35;;;;;;;1.30;1.10;;;;;;;;;;5113665;28;20073;-67
2021/01/19 03:29:01;;;;;;;1.15;1.05;;;;;;;;;;5114240;28;20023;-67
2021/01/19 03:31:27;;;;;;;0.93;0.88;;;;;;;;;;5112939;28;20031;-67
2021/01/19 03:33:53;;;;;;;1.40;0.95;;;;;;;;;;5113529;28;20051;-67
2021/01/19 03:36:20;;;;;;;1.60;1.33;;;;;;;;;;5111562;28;20031;-67
2021/01/19 03:38:46;;;;;;;0.70;0.70;;;;;;;;;;5093305;28;20034;-67
2021/01/19 03:41:12;;;;;;;0.98;0.77;;;;;;;;;;5092943;28;20080;-67
2021/01/19 03:43:38;;;;;;;1.25;1.15;;;;;;;;;;5092921;28;20040;-67
2021/01/19 03:46:04;;;;;;;0.90;0.63;;;;;;;;;;5093129;28;20492;-67
2021/01/19 03:48:30;;;;;;;0.63;0.60;;;;;;;;;;5092985;28;20061;-67
2021/01/19 03:50:56;;;;;;;1.10;0.98;;;;;;;;;;5093469;28;20064;-67
2021/01/19 03:53:22;;;;;;;1.52;0.93;;;;;;;;;;5092294;28;20028;-66
2021/01/19 03:55:48;;;;;;;1.27;1.17;;;;;;;;;;5093290;28;20040;-67
2021/01/19 03:58:14;;;;;;;1.08;0.70;;;;;;;;;;5092725;28;20094;-66
2021/01/19 04:00:40;;;;;;;0.75;0.75;;;;;;;;;;5092822;28;20099;-67
2021/01/19 04:03:06;;;;;;;1.00;0.68;;;;;;;;;;5093214;28;20085;-67
2021/01/19 04:05:32;;;;;;;1.38;0.82;;;;;;;;;;5091886;28;20059;-67
2021/01/19 04:07:58;;;;;;;0.85;0.85;;;;;;;;;;5092882;28;20344;-67
2021/01/19 04:10:24;;;;;;;0.75;0.57;;;;;;;;;;5092380;28;20425;-67
2021/01/19 04:12:50;;;;;;;0.57;0.52;;;;;;;;;;5092756;28;20038;-67
2021/01/19 04:15:16;;;;;;;0.68;0.63;;;;;;;;;;5092519;28;20035;-67
2021/01/19 04:17:42;;;;;;;0.52;0.50;;;;;;;;;;5092327;28;20054;-67
2021/01/19 04:20:09;;;;;;;0.65;0.65;;;;;;;;;;5092268;28;20489;-67
2021/01/19 04:22:35;;;;;;;0.50;0.50;;;;;;;;;;5092355;28;20024;-67
2021/01/19 04:25:01;;;;;;;0.57;0.55;;;;;;;;;;5092543;28;20027;-67
2021/01/19 04:27:27;;;;;;;1.48;0.50;;;;;;;;;;5090936;28;20173;-67
2021/01/19 04:29:53;;;;;;;0.55;0.55;;;;;;;;;;5092965;28;20378;-67
2021/01/19 04:32:20;;;;;;;0.45;0.45;;;;;;;;;;5091958;28;20039;-67
2021/01/19 04:34:46;;;;;;;0.52;0.45;;;;;;;;;;5092211;28;20020;-67
2021/01/19 04:37:12;;;;;;;0.50;0.40;;;;;;;;;;5101281;28;20390;-67
2021/01/19 04:39:38;;;;;;;0.32;0.32;;;;;;;;;;5112223;28;20359;-67
2021/01/19 04:42:04;;;;;;;0.60;0.43;;;;;;;;;;5112644;28;20430;-67
2021/01/19 04:44:31;;;;;;;0.60;0.40;;;;;;;;;;5111904;28;20028;-67
2021/01/19 04:46:58;;;;;;;0.25;0.25;;;;;;;;;;5112072;28;20034;-67
2021/01/19 04:49:25;;;;;;;0.40;0.40;;;;;;;;;;5111935;28;20490;-67
2021/01/19 04:51:52;;;;;;;0.40;0.40;;;;;;;;;;5112282;28;20051;-67
2021/01/19 04:54:22;;;;;;;0.45;0.45;;;;;;;;;;5111583;28;20055;-66
2021/01/19 04:56:55;;;;;;;0.75;0.55;;;;;;;;;;5111756;28;20023;-67
2021/01/19 04:59:22;;;;;;;0.20;0.20;;;;;;;;;;5111454;28;20027;-67
2021/01/19 05:02:08;;;;;;;0.40;0.40;;;;;;;;;;5111981;28;20043;-67
2021/01/19 05:04:44;;;;;;;0.20;0.20;;;;;;;;;;5111816;28;20439;-67
2021/01/19 05:07:29;;;;;;;0.30;0.30;;;;;;;;;;5111318;28;20498;-67
2021/01/19 05:10:13;;;;;;;0.40;0.40;;;;;;;;;;5111850;28;20103;-67
2021/01/19 05:12:41;;;;;;;0.22;0.22;;;;;;;;;;5111714;28;20035;-67
2021/01/19 05:15:09;;;;;;;0.50;0.50;;;;;;;;;;5111981;28;20073;-67
2021/01/19 05:17:35;;;;;;;0.45;0.40;;;;;;;;;;5110722;28;20054;-67
2021/01/19 05:20:01;;;;;;;0.77;0.75;;;;;;;;;;5111681;28;20031;-67
2021/01/19 05:22:27;;;;;;;0.30;0.30;;;;;;;;;;5111544;28;20375;-67
2021/01/19 05:24:53;;;;;;;0.28;0.20;;;;;;;;;;5112033;28;20065;-67
2021/01/19 05:27:19;;;;;;;0.70;0.68;;;;;;;;;;5110917;28;20044;-66
2021/01/19 05:29:46;;;;;;;0.30;0.30;;;;;;;;;;5111442;28;20462;-67
2021/01/19 05:32:14;;;;;;;0.30;0.30;;;;;;;;;;5111847;28;20415;-67
2021/01/19 05:34:40;;;;;;;0.40;0.40;;;;;;;;;;5111314;28;20063;-67
2021/01/19 05:37:06;;;;;;;0.77;0.57;;;;;;;;;;5102804;28;20034;-67
2021/01/19 05:39:33;;;;;;;0.20;0.20;;;;;;;;;;5090186;28;20020;-67
2021/01/19 05:42:00;;;;;;;0.40;0.30;;;;;;;;;;5090899;28;20031;-67
2021/01/19 05:44:32;;;;;;;0.40;0.28;;;;;;;;;;5090417;28;20158;-67
2021/01/19 05:46:59;;;;;;;0.68;0.22;;;;;;;;;;5091095;28;20084;-67
2021/01/19 05:49:26;;;;;;;0.30;0.30;;;;;;;;;;5090197;28;20024;-67
2021/01/19 05:51:58;;;;;;;0.60;0.40;;;;;;;;;;5091200;28;20035;-67
2021/01/19 05:54:25;;;;;;;0.20;0.20;;;;;;;;;;5090013;28;20024;-67
2021/01/19 05:56:58;;;;;;;0.38;0.28;;;;;;;;;;5091035;28;20035;-67
2021/01/19 05:59:28;;;;;;;0.52;0.30;;;;;;;;;;5089932;28;20538;-66
2021/01/19 06:02:01;;;;;;;0.50;0.43;;;;;;;;;;5090507;28;20031;-67
2021/01/19 06:04:31;;;;;;;0.45;0.45;;;;;;;;;;5089957;28;20090;-67
2021/01/19 06:06:58;;;;;;;0.52;0.52;;;;;;;;;;5090462;28;20040;-67
2021/01/19 06:09:25;;;;;;;0.20;0.20;;;;;;;;;;5089719;28;20032;-67
2021/01/19 06:11:51;;;;;;;0.20;0.20;;;;;;;;;;5090849;28;20142;-67
2021/01/19 06:14:21;;;;;;;0.40;0.28;;;;;;;;;;5090217;28;20031;-66
2021/01/19 06:16:47;;;;;;;0.40;0.40;;;;;;;;;;5090637;28;20417;-67
2021/01/19 06:19:25;;;;;;;0.32;0.20;;;;;;;;;;5090665;28;20384;-67
2021/01/19 06:21:51;;;;;;;0.20;0.20;;;;;;;;;;5090426;28;20028;-67
2021/01/19 06:24:17;;;;;;;0.47;0.47;;;;;;;;;;5089854;28;20034;-66
2021/01/19 06:26:43;;;;;;;0.38;0.20;;;;;;;;;;5090679;28;20040;-67
2021/01/19 06:29:09;;;;;;;0.28;0.28;;;;;;;;;;5090892;28;20096;-67
2021/01/19 06:31:36;;;;;;;0.20;0.20;;;;;;;;;;5089527;28;20071;-67
2021/01/19 06:34:02;;;;;;;0.63;0.30;;;;;;;;;;5088362;28;20035;-67
2021/01/19 06:36:36;;;;;;;0.50;0.50;;;;;;;;;;5089927;28;20374;-67
2021/01/19 06:39:03;;;;;;;0.30;0.30;;;;;;;;;;5108486;28;20023;-67
2021/01/19 06:41:32;;;;;;;0.50;0.50;;;;;;;;;;5108532;28;20092;-67
2021/01/19 06:44:00;;;;;;;0.77;0.47;;;;;;;;;;5107993;28;20036;-67
2021/01/19 06:46:28;;;;;;;0.30;0.10;;;;;;;;;;5108675;28;20032;-67
2021/01/19 06:48:58;;;;;;;0.10;0.10;;;;;;;;;;5087435;28;20029;-67
2021/01/19 06:51:24;;;;;;;0.20;0.20;;;;;;;;;;5069904;28;20025;-67
2021/01/19 06:54:01;;;;;;;0.28;0.28;;;;;;;;;;5079850;28;20019;-66
2021/01/19 06:56:47;;;;;;;0.40;0.40;;;;;;;;;;5080140;28;20509;-67
2021/01/19 06:59:16;;;;;;;0.57;0.30;;;;;;;;;;5091117;28;20073;-66
2021/01/19 07:01:43;;;;;;;3.08;0.30;;;;;;;;;;5090848;28;20036;-67
2021/01/19 07:04:13;;;;;;;0.10;0.10;;;;;;;;;;5076580;28;20032;-67
2021/01/19 07:06:54;;;;;;;1.00;0.70;;;;;;;;;;5077807;28;20580;-67
2021/01/19 07:09:39;;;;;;;0.13;0.10;;;;;;;;;;5086403;28;20032;-67
2021/01/19 07:12:06;;;;;;;1.65;0.25;;;;;;;;;;5089344;28;20397;-69
2021/01/19 07:14:40;;;;;;;0.43;0.43;;;;;;;;;;5085091;28;20028;-67
2021/01/19 07:17:16;;;;;;;0.35;0.30;;;;;;;;;;5088573;28;20109;-67
2021/01/19 07:19:46;;;;;;;0.20;0.20;;;;;;;;;;5085059;28;20020;-68
2021/01/19 07:22:25;;;;;;;0.30;0.30;;;;;;;;;;5087268;28;20085;-68
2021/01/19 07:24:51;;;;;;;4.22;0.57;;;;;;;;;;5076579;28;20029;-67
2021/01/19 07:27:20;;;;;;;1.02;0.50;;;;;;;;;;5082281;28;20443;-66
2021/01/19 07:29:47;;;;;;;0.93;0.60;;;;;;;;;;5090748;28;20081;-67
2021/01/19 07:32:15;;;;;;;2.50;1.33;;;;;;;;;;5091696;28;20028;-65
2021/01/19 07:34:42;;;;;;;1.15;0.98;;;;;;;;;;5083516;28;20035;-67
2021/01/19 07:37:08;;;;;;;2.90;0.90;;;;;;;;;;5053173;28;20028;-67
2021/01/19 07:39:35;;;;;;;3.63;1.33;;;;;;;;;;5080723;28;20036;-67
2021/01/19 07:42:20;;;;;;;2.63;1.75;;;;;;;;;;5085645;28;20409;-67
2021/01/19 07:44:55;;;;;;;1.33;0.77;;;;;;;;;;5091644;28;20099;-67
2021/01/19 07:47:21;;;;;;;1.15;0.85;;;;;;;;;;5088068;28;20047;-66
2021/01/19 07:49:47;;;;;;;2.75;1.00;;;;;;;;;;5090904;28;20089;-67
2021/01/19 07:52:14;;;;;;;1.67;0.65;;;;;;;;;;5089683;28;20375;-66
2021/01/19 07:54:41;;;;;;;0.60;0.60;;;;;;;;;;5095032;28;20033;-67
2021/01/19 07:57:11;;;;;;;1.85;1.15;;;;;;;;;;5092780;28;20060;-67
2021/01/19 07:59:38;;;;;;;0.57;0.50;;;;;;;;;;5087686;28;20305;-66
2021/01/19 08:02:04;;;;;;;1.02;0.75;;;;;;;;;;5067073;28;20043;-66
2021/01/19 08:04:34;;;;;;;0.77;0.77;;;;;;;;;;5077144;28;20024;-66
2021/01/19 08:07:14;;;;;;;2.53;0.80;;;;;;;;;;5076684;28;20071;-65
2021/01/19 08:09:40;;;;;;;2.05;0.70;;;;;;;;;;5077270;28;20044;-68
2021/01/19 08:12:12;;;;;;;2.20;0.93;;;;;;;;;;5076977;28;20137;-66
2021/01/19 08:14:39;;;;;;;2.17;0.90;;;;;;;;;;5078172;28;20109;-68
2021/01/19 08:17:06;;;;;;;1.85;1.45;;;;;;;;;;5077369;28;20059;-67
2021/01/19 08:19:40;;;;;;;2.80;0.63;;;;;;;;;;5084344;22;20019;-83
2021/01/19 08:22:06;;;;;;;1.73;0.98;;;;;;;;;;5024949;28;20586;-83
2021/01/19 08:24:32;;;;;;;2.03;1.17;;;;;;;;;;5024117;28;20136;-83
2021/01/19 08:26:59;;;;;;;2.63;0.77;;;;;;;;;;5025610;28;20022;-82
2021/01/19 08:29:25;;;;;;;2.75;1.00;;;;;;;;;;5037038;28;20022;-83
2021/01/19 08:31:54;;;;;;;2.83;0.85;;;;;;;;;;5020278;28;20017;-83
2021/01/19 08:34:21;;;;;;;6.68;1.70;;;;;;;;;;5024312;28;20033;-85
2021/01/19 08:36:48;;;;;;;2.97;1.75;;;;;;;;;;5025779;28;20064;-86
2021/01/19 08:39:15;;;;;;;3.67;1.48;;;;;;;;;;5023428;28;20025;-84
2021/01/19 08:42:03;;;;;;;6.55;1.88;;;;;;;;;;5028542;28;20495;-86
2021/01/19 08:44:29;;;;;;;14.07;2.92;;;;;;;;;;5025874;28;20377;-85
2021/01/19 08:46:56;;;;;;;3.47;1.98;;;;;;;;;;5030947;28;20044;-87
2021/01/19 08:49:22;;;;;;;7.05;2.50;;;;;;;;;;5030074;28;20029;-85
2021/01/19 08:51:49;;;;;;;3.55;1.63;;;;;;;;;;5032437;28;20625;-86
2021/01/19 08:54:15;;;;;;;5.20;2.03;;;;;;;;;;5028373;28;20059;-85
2021/01/19 08:56:43;;;;;;;4.95;1.73;;;;;;;;;;5029654;28;20055;-85
2021/01/19 08:59:15;;;;;;;3.03;1.25;;;;;;;;;;5028430;28;20029;-86
2021/01/19 09:01:50;;;;;;;10.05;2.30;;;;;;;;;;5026076;28;20033;-85
2021/01/19 09:04:27;;;;;;;5.18;2.10;;;;;;;;;;5021897;28;20029;-85
2021/01/19 09:06:54;;;;;;;9.73;1.77;;;;;;;;;;5020037;28;20040;-85
2021/01/19 09:09:21;;;;;;;2.88;1.42;;;;;;;;;;5019706;28;20033;-85
2021/01/19 09:11:47;;;;;;;2.28;1.85;;;;;;;;;;5024280;28;20025;-85
2021/01/19 09:14:13;;;;;;;2.60;1.95;;;;;;;;;;5015909;28;20442;-84
2021/01/19 09:16:40;;;;;;;4.63;1.80;;;;;;;;;;5025797;28;20033;-84
2021/01/19 09:19:10;;;;;;;3.22;1.42;;;;;;;;;;5040254;28;20704;-84
2021/01/19 09:21:38;;;;;;;5.93;1.90;;;;;;;;;;5026145;28;20052;-85
2021/01/19 09:24:12;;;;;;;3.05;2.10;;;;;;;;;;5023664;28;20500;-88
2021/01/19 09:26:53;;;;;;;4.10;2.17;;;;;;;;;;5018420;28;20029;-87
2021/01/19 09:29:22;;;;;;;4.22;3.47;;;;;;;;;;5026133;28;20514;-86
2021/01/19 09:31:49;;;;;;;6.00;3.95;;;;;;;;;;5025897;28;20029;-86
2021/01/19 09:34:18;;;;;;;6.13;3.80;;;;;;;;;;5021687;28;20112;-89
2021/01/19 09:36:45;;;;;;;5.90;3.67;;;;;;;;;;5025321;28;20060;-86
2021/01/19 09:39:11;;;;;;;12.30;3.05;;;;;;;;;;5025276;28;20048;-86
2021/01/19 09:41:37;;;;;;;3.28;2.83;;;;;;;;;;5025844;28;20029;-92
2021/01/19 09:44:03;;;;;;;6.85;3.08;;;;;;;;;;5024621;28;20024;-92
2021/01/19 09:46:30;;;;;;;2.78;2.17;;;;;;;;;;5027134;28;20048;-90
2021/01/19 09:49:16;;;;;;;4.80;2.60;;;;;;;;;;5017993;28;20044;-88
2021/01/19 09:51:42;;;;;;;4.07;2.83;;;;;;;;;;5003807;28;20037;-89
2021/01/19 09:54:08;;;;;;;5.22;2.65;;;;;;;;;;5026756;28;20032;-88
2021/01/19 09:56:36;;;;;;;3.80;2.33;;;;;;;;;;5028802;28;20116;-92
2021/01/19 09:59:04;;;;;;;4.00;3.15;;;;;;;;;;5027995;28;20039;-88
2021/01/19 10:01:50;;;;;;;5.05;2.92;;;;;;;;;;5028364;28;20799;-92
2021/01/19 10:04:56;;;;;;;5.18;2.08;;;;;;;;;;5046741;28;20037;-92
2021/01/19 10:07:27;;;;;;;7.57;3.78;;;;;;;;;;5040900;28;20101;-90
2021/01/19 10:09:54;;;;;;;3.40;2.63;;;;;;;;;;5028567;28;20029;-91
2021/01/19 10:12:41;;;;;;;5.43;1.95;;;;;;;;;;5030145;28;20029;-90
2021/01/19 10:15:47;;;;;;;3.75;2.20;;;;;;;;;;5044021;28;20120;-91
2021/01/19 10:18:54;;;;;;;4.97;2.72;;;;;;;;;;5050654;28;20080;-92
2021/01/19 10:22:01;;;;;;;3.10;1.88;;;;;;;;;;5037444;28;20049;-95
2021/01/19 10:25:07;;;;;;;7.20;2.15;;;;;;;;;;5023365;28;20045;-95
2021/01/19 10:28:23;;;;;;;4.45;1.67;;;;;;;;;;5052984;28;20045;-94
2021/01/19 10:31:38;;;;;;;4.15;1.92;;;;;;;;;;5033167;28;20036;-93
2021/01/19 10:34:44;;;;;;;4.13;1.92;;;;;;;;;;5051546;28;20030;-93
2021/01/19 10:37:51;;;;;;;5.00;2.08;;;;;;;;;;5049208;28;20076;-93
2021/01/19 10:40:57;;;;;;;4.93;1.73;;;;;;;;;;5017681;28;20041;-94
2021/01/19 10:43:27;;;;;;;3.28;1.92;;;;;;;;;;5007901;28;20104;-90
2021/01/19 10:45:56;;;;;;;4.67;3.47;;;;;;;;;;5036976;28;20036;-93
2021/01/19 10:48:38;;;;;;;4.55;2.85;;;;;;;;;;5024090;28;20288;-91
2021/01/19 10:51:27;;;;;;;5.25;1.80;;;;;;;;;;5018668;28;20021;-95
2021/01/19 10:54:12;;;;;;;3.95;2.08;;;;;;;;;;5033350;28;20026;-87
2021/01/19 10:56:40;;;;;;;6.68;2.65;;;;;;;;;;5014446;28;20026;-90
2021/01/19 10:59:06;;;;;;;4.53;1.48;;;;;;;;;;5000641;28;20026;-88
2021/01/19 11:01:33;;;;;;;1.88;1.40;;;;;;;;;;5015255;28;20028;-91
2021/01/19 11:04:01;;;;;;;1.80;1.63;;;;;;;;;;5018824;28;20098;-90
2021/01/19 11:06:31;;;;;;;2.28;1.30;;;;;;;;;;4997873;28;20026;-88
2021/01/19 11:08:57;;;;;;;3.47;1.48;;;;;;;;;;5015816;28;20033;-89
2021/01/19 11:11:24;;;;;;;2.38;1.42;;;;;;;;;;5013361;28;20086;-87
2021/01/19 11:13:50;;;;;;;2.65;1.35;;;;;;;;;;5012058;28;20034;-88
2021/01/19 11:16:16;;;;;;;2.85;1.65;;;;;;;;;;5018431;28;20044;-88
2021/01/19 11:18:42;;;;;;;4.93;1.83;;;;;;;;;;5015133;28;20452;-87
2021/01/19 11:21:11;;;;;;;2.30;1.27;;;;;;;;;;5017415;28;20077;-86
2021/01/19 11:23:38;;;;;;;1.92;1.48;;;;;;;;;;5030444;28;20055;-87
2021/01/19 11:26:04;;;;;;;2.60;1.33;;;;;;;;;;5032186;28;20503;-87
2021/01/19 11:28:30;;;;;;;1.25;1.05;;;;;;;;;;5013886;28;20095;-87
2021/01/19 11:30:56;;;;;;;1.63;1.48;;;;;;;;;;5017122;28;20041;-87
2021/01/19 11:33:22;;;;;;;2.90;1.52;;;;;;;;;;5010898;28;20759;-86
2021/01/19 11:35:48;;;;;;;2.05;1.45;;;;;;;;;;5030156;28;20110;-88
2021/01/19 11:38:14;;;;;;;2.15;1.30;;;;;;;;;;5017272;28;21051;-87
2021/01/19 11:40:42;;;;;;;1.75;1.60;;;;;;;;;;5016850;28;20058;-86
2021/01/19 11:43:08;;;;;;;1.80;1.50;;;;;;;;;;5034162;28;20043;-86
2021/01/19 11:45:34;;;;;;;3.60;1.50;;;;;;;;;;5015952;28;20036;-86
2021/01/19 11:48:01;;;;;;;4.65;1.98;;;;;;;;;;5020124;28;20381;-86
2021/01/19 11:50:27;;;;;;;2.60;1.73;;;;;;;;;;5021383;28;20044;-86
2021/01/19 11:52:53;;;;;;;2.70;1.02;;;;;;;;;;5019149;28;20100;-86
2021/01/19 11:55:20;;;;;;;1.83;1.73;;;;;;;;;;5036360;28;20052;-87
2021/01/19 11:57:48;;;;;;;1.60;1.50;;;;;;;;;;5018395;28;20132;-86
2021/01/19 12:00:14;;;;;;;5.07;1.70;;;;;;;;;;5019593;28;20031;-87
2021/01/19 12:02:40;;;;;;;2.08;1.40;;;;;;;;;;5021212;28;20249;-86
2021/01/19 12:05:07;;;;;;;1.40;1.30;;;;;;;;;;5037261;28;20024;-86
2021/01/19 12:07:37;;;;;;;1.77;1.35;;;;;;;;;;5017704;28;20095;-86
2021/01/19 12:10:03;;;;;;;1.17;1.08;;;;;;;;;;5016648;28;20072;-86
2021/01/19 12:12:29;;;;;;;1.77;1.65;;;;;;;;;;5034880;28;20053;-86
2021/01/19 12:14:55;;;;;;;1.83;1.73;;;;;;;;;;5017784;28;20029;-86
2021/01/19 12:17:21;;;;;;;3.97;2.00;;;;;;;;;;5021526;28;20037;-86
2021/01/19 12:19:48;;;;;;;1.23;1.10;;;;;;;;;;5020296;28;20025;-86
2021/01/19 12:22:14;;;;;;;2.67;1.08;;;;;;;;;;5017429;28;20052;-86
2021/01/19 12:24:40;;;;;;;2.95;2.55;;;;;;;;;;5013341;28;20029;-86
2021/01/19 12:27:07;;;;;;;4.00;1.48;;;;;;;;;;5026158;28;20025;-85
2021/01/19 12:29:33;;;;;;;2.13;1.20;;;;;;;;;;5015075;28;20021;-86
2021/01/19 12:32:04;;;;;;;1.90;1.67;;;;;;;;;;5015295;28;20118;-87
2021/01/19 12:34:30;;;;;;;3.47;1.35;;;;;;;;;;5022563;28;20025;-87
2021/01/19 12:36:57;;;;;;;1.90;1.58;;;;;;;;;;5015559;28;20033;-86
2021/01/19 12:39:23;;;;;;;3.55;1.05;;;;;;;;;;5017944;28;20025;-87
2021/01/19 12:41:51;;;;;;;1.65;0.90;;;;;;;;;;5018592;28;20025;-88
2021/01/19 12:44:17;;;;;;;2.17;1.00;;;;;;;;;;5014257;28;20086;-87
2021/01/19 12:46:43;;;;;;;7.80;1.58;;;;;;;;;;5015897;28;20047;-86
2021/01/19 12:49:09;;;;;;;1.83;1.23;;;;;;;;;;5023102;28;20144;-87
2021/01/19 12:51:35;;;;;;;4.03;1.55;;;;;;;;;;5012427;28;20116;-86
2021/01/19 12:54:01;;;;;;;1.65;1.30;;;;;;;;;;5009300;28;21242;-85
2021/01/19 12:56:28;;;;;;;4.15;2.03;;;;;;;;;;5023488;28;20083;-86
2021/01/19 12:58:54;;;;;;;5.90;1.73;;;;;;;;;;5015909;28;20044;-87
2021/01/19 13:01:21;;;;;;;5.82;2.45;;;;;;;;;;5024456;28;20029;-84
2021/01/19 13:03:47;;;;;;;1.92;1.67;;;;;;;;;;5015543;28;20033;-86
2021/01/19 13:06:14;;;;;;;2.45;1.95;;;;;;;;;;5016809;28;20399;-86
2021/01/19 13:08:40;;;;;;;3.80;1.80;;;;;;;;;;5008996;28;20037;-86
2021/01/19 13:11:07;;;;;;;2.00;1.80;;;;;;;;;;5024585;28;20032;-86
2021/01/19 13:13:33;;;;;;;3.42;1.55;;;;;;;;;;5028654;28;20076;-86
2021/01/19 13:15:59;;;;;;;1.45;1.13;;;;;;;;;;5016797;28;20029;-85
2021/01/19 13:18:25;;;;;;;4.63;1.70;;;;;;;;;;5029530;28;20048;-86
2021/01/19 13:20:51;;;;;;;3.35;1.30;;;;;;;;;;5030563;28;20507;-86
2021/01/19 13:23:17;;;;;;;4.68;1.60;;;;;;;;;;5031784;28;20140;-84
2021/01/19 13:25:44;;;;;;;2.65;1.60;;;;;;;;;;5031157;28;20048;-84
2021/01/19 13:28:10;;;;;;;3.40;1.15;;;;;;;;;;5014119;28;20404;-85
2021/01/19 13:30:37;;;;;;;1.63;1.17;;;;;;;;;;5030610;28;20714;-84
2021/01/19 13:33:03;;;;;;;1.52;1.42;;;;;;;;;;5011812;28;20075;-85
2021/01/19 13:35:29;;;;;;;1.75;1.27;;;;;;;;;;5011427;28;20037;-84
2021/01/19 13:37:55;;;;;;;1.95;1.38;;;;;;;;;;5022017;28;20561;-86
2021/01/19 13:40:21;;;;;;;1.13;1.05;;;;;;;;;;5020287;28;20080;-84
2021/01/19 13:42:47;;;;;;;7.25;1.58;;;;;;;;;;5010895;28;20109;-84
2021/01/19 13:45:14;;;;;;;1.60;1.40;;;;;;;;;;5028671;28;20025;-85
2021/01/19 13:47:40;;;;;;;2.53;0.80;;;;;;;;;;5011266;28;20176;-84
2021/01/19 13:50:07;;;;;;;1.25;1.15;;;;;;;;;;5010977;28;20665;-84
2021/01/19 13:52:33;;;;;;;2.30;1.00;;;;;;;;;;5011269;28;20026;-85
2021/01/19 13:54:59;;;;;;;1.85;0.93;;;;;;;;;;5016202;28;20125;-85
2021/01/19 13:57:26;;;;;;;1.70;1.27;;;;;;;;;;5028941;28;20037;-84
2021/01/19 13:59:52;;;;;;;3.17;1.35;;;;;;;;;;5035321;28;20029;-85
2021/01/19 14:02:18;;;;;;;3.05;1.90;;;;;;;;;;5027589;28;20035;-84
2021/01/19 14:04:44;;;;;;;1.73;1.35;;;;;;;;;;5028939;28;20052;-83
2021/01/19 14:07:11;;;;;;;1.50;0.70;;;;;;;;;;5027758;28;20065;-86
2021/01/19 14:09:37;;;;;;;2.78;0.85;;;;;;;;;;4995709;28;20099;-86
2021/01/19 14:12:04;;;;;;;1.60;0.77;;;;;;;;;;5010931;28;20072;-86
2021/01/19 14:14:30;;;;;;;2.80;0.70;;;;;;;;;;5011377;28;20045;-84
2021/01/19 14:16:57;;;;;;;5.50;0.82;;;;;;;;;;5011591;28;20025;-85
2021/01/19 14:19:24;;;;;;;9.70;1.13;;;;;;;;;;5011166;28;20060;-86
2021/01/19 14:21:58;;;;;;;1.35;1.20;;;;;;;;;;5000150;28;20041;-85
2021/01/19 14:24:24;;;;;;;1.25;1.15;;;;;;;;;;4996699;28;20032;-85
2021/01/19 14:26:51;;;;;;;3.40;0.93;;;;;;;;;;5029590;28;20036;-86
2021/01/19 14:29:17;;;;;;;1.67;0.88;;;;;;;;;;5020622;28;20452;-85
2021/01/19 14:31:47;;;;;;;1.02;0.75;;;;;;;;;;5010716;28;20404;-85
2021/01/19 14:34:16;;;;;;;1.45;0.85;;;;;;;;;;5025525;28;20049;-86
2021/01/19 14:36:43;;;;;;;1.90;1.00;;;;;;;;;;5034928;28;20060;-84
2021/01/19 14:39:10;;;;;;;1.17;1.08;;;;;;;;;;5009905;28;20060;-84
2021/01/19 14:41:42;;;;;;;2.00;0.93;;;;;;;;;;5006059;28;20024;-85
2021/01/19 14:44:09;;;;;;;1.48;1.08;;;;;;;;;;5010196;28;20030;-84
2021/01/19 14:46:35;;;;;;;1.58;0.93;;;;;;;;;;5010488;28;20538;-85
2021/01/19 14:49:04;;;;;;;1.05;0.90;;;;;;;;;;5010596;28;20120;-86
2021/01/19 14:51:31;;;;;;;2.70;1.98;;;;;;;;;;5010150;28;20030;-84
2021/01/19 14:53:57;;;;;;;1.00;1.00;;;;;;;;;;5011731;28;20029;-84
2021/01/19 14:56:32;;;;;;;2.65;1.20;;;;;;;;;;5030004;28;20567;-85